KBOS/BOS METAR and TAF weather

Enter ICAO airport designator
Station Type Date Time Source
KBOS METAR 2020/09/20 14:54 UTC NOAA

KBOS 201454Z 02014KT 10SM FEW030 FEW150 SCT250 14/02 A3055 RMK AO2 SLP344 T01390017 51015


Station Type Date Time Source
KBOS Decoded METAR 2020/09/20 14:54 UTC NOAA

BOSTON LOGAN INTERNATIONAL, MA, United States (KBOS) 42-22N 071-01W 54M
Sep 20, 2020 - 10:54 AM EDT / 2020.09.20 1454 UTC
Wind: from the NNE (020 degrees) at 16 MPH (14 KT):0
Visibility: 10 mile(s):0
Sky conditions: partly cloudy
Temperature: 57.0 F (13.9 C)
Dew Point: 35.1 F (1.7 C)
Relative Humidity: 43%
Pressure (altimeter): 30.55 in. Hg (1034 hPa)
Pressure tendency: 0.04 inches (1.5 hPa) higher than three hours ago
ob: KBOS 201454Z 02014KT 10SM FEW030 FEW150 SCT250 14/02 A3055 RMK AO2 SLP344 T01390017 51015
cycle: 15

Station Type Date Time Source
KBOS TAF 2020/09/20 15:58 UTC NOAA

TAF
AMD KBOS 201456Z 2015/2118 04014G21KT P6SM FEW030 SCT150
FM202100 07010KT P6SM SCT200
FM210100 04007KT P6SM SKC
FM210800 01008KT P6SM SKC
FM211400 04011KT P6SM SKC

Example: see airport list